Terminal Aerodrome Forecast
Issued by NWS

Current Version | Previous Version | Text Only | Print | Product List | Glossary Off
Versions: 1 2 3 4 5 6 7 8 9 10 11 12 13 14 15

000
FTUS41 KILN 201700
TAFLCK
TAF
KLCK 201731Z 2018/2118 VRB03KT P6SM OVC018
     FM210400 VRB03KT P6SM BKN022
      TEMPO 2114/2118 SCT020=

USA.gov is the U.S. government's official web portal to all federal, state and local government web resources and services.